sensor_id;sensor_type;location;lat;lon;timestamp;temperature;humidity
33988;DHT22;37428;53.580;-1.666;2024-03-22T00:01:09;9.40;99.90
33988;DHT22;37428;53.580;-1.666;2024-03-22T00:04:10;9.40;99.90
33988;DHT22;37428;53.580;-1.666;2024-03-22T00:07:14;9.40;99.90
33988;DHT22;37428;53.580;-1.666;2024-03-22T00:10:14;9.40;99.90
33988;DHT22;37428;53.580;-1.666;2024-03-22T00:13:16;9.40;99.90
33988;DHT22;37428;53.580;-1.666;2024-03-22T00:16:17;9.40;99.90
33988;DHT22;37428;53.580;-1.666;2024-03-22T00:19:19;9.40;99.90
33988;DHT22;37428;53.580;-1.666;2024-03-22T00:22:21;9.40;99.90
33988;DHT22;37428;53.580;-1.666;2024-03-22T00:25:23;9.40;99.90
33988;DHT22;37428;53.580;-1.666;2024-03-22T00:28:24;9.40;99.90
33988;DHT22;37428;53.580;-1.666;2024-03-22T00:31:26;9.40;99.90
33988;DHT22;37428;53.580;-1.666;2024-03-22T00:34:27;9.40;99.90
33988;DHT22;37428;53.580;-1.666;2024-03-22T00:37:30;9.40;99.90
33988;DHT22;37428;53.580;-1.666;2024-03-22T00:40:31;9.30;99.90
33988;DHT22;37428;53.580;-1.666;2024-03-22T00:43:33;9.30;99.90
33988;DHT22;37428;53.580;-1.666;2024-03-22T00:46:34;9.30;99.90
33988;DHT22;37428;53.580;-1.666;2024-03-22T00:49:36;9.30;99.90
33988;DHT22;37428;53.580;-1.666;2024-03-22T00:52:38;9.30;99.90
33988;DHT22;37428;53.580;-1.666;2024-03-22T00:55:40;9.30;99.90
33988;DHT22;37428;53.580;-1.666;2024-03-22T00:58:41;9.30;99.90
33988;DHT22;37428;53.580;-1.666;2024-03-22T01:01:42;9.30;99.90
33988;DHT22;37428;53.580;-1.666;2024-03-22T01:04:44;9.20;99.90
33988;DHT22;37428;53.580;-1.666;2024-03-22T01:07:47;9.20;99.90
33988;DHT22;37428;53.580;-1.666;2024-03-22T01:10:49;9.20;99.90
33988;DHT22;37428;53.580;-1.666;2024-03-22T01:13:49;9.20;99.90
33988;DHT22;37428;53.580;-1.666;2024-03-22T01:16:51;9.20;99.90
33988;DHT22;37428;53.580;-1.666;2024-03-22T01:19:52;9.10;99.90
33988;DHT22;37428;53.580;-1.666;2024-03-22T01:22:55;9.10;99.90
33988;DHT22;37428;53.580;-1.666;2024-03-22T01:25:56;9.00;99.90
33988;DHT22;37428;53.580;-1.666;2024-03-22T01:28:58;9.00;99.90
33988;DHT22;37428;53.580;-1.666;2024-03-22T01:31:59;9.00;99.90
33988;DHT22;37428;53.580;-1.666;2024-03-22T01:35:00;8.90;99.90
33988;DHT22;37428;53.580;-1.666;2024-03-22T01:38:03;8.90;99.90
33988;DHT22;37428;53.580;-1.666;2024-03-22T01:41:05;8.90;99.90
33988;DHT22;37428;53.580;-1.666;2024-03-22T01:44:05;8.90;99.90
33988;DHT22;37428;53.580;-1.666;2024-03-22T01:47:07;8.80;99.90
33988;DHT22;37428;53.580;-1.666;2024-03-22T01:50:08;8.80;99.90
33988;DHT22;37428;53.580;-1.666;2024-03-22T01:53:13;8.80;99.90
33988;DHT22;37428;53.580;-1.666;2024-03-22T01:56:14;8.80;99.90
33988;DHT22;37428;53.580;-1.666;2024-03-22T01:59:16;8.90;99.90
33988;DHT22;37428;53.580;-1.666;2024-03-22T02:02:18;8.90;99.90
33988;DHT22;37428;53.580;-1.666;2024-03-22T02:05:20;8.80;99.90
33988;DHT22;37428;53.580;-1.666;2024-03-22T02:08:23;8.60;99.90
33988;DHT22;37428;53.580;-1.666;2024-03-22T02:11:25;8.30;99.90
33988;DHT22;37428;53.580;-1.666;2024-03-22T02:14:26;8.20;99.90
33988;DHT22;37428;53.580;-1.666;2024-03-22T02:17:28;8.00;99.90
33988;DHT22;37428;53.580;-1.666;2024-03-22T02:20:29;7.90;99.90
33988;DHT22;37428;53.580;-1.666;2024-03-22T02:23:33;7.80;99.90
33988;DHT22;37428;53.580;-1.666;2024-03-22T02:26:35;7.80;99.90
33988;DHT22;37428;53.580;-1.666;2024-03-22T02:29:36;7.80;99.90
33988;DHT22;37428;53.580;-1.666;2024-03-22T02:32:37;7.80;99.90
33988;DHT22;37428;53.580;-1.666;2024-03-22T02:35:41;7.80;99.90
33988;DHT22;37428;53.580;-1.666;2024-03-22T02:38:44;7.80;99.90
33988;DHT22;37428;53.580;-1.666;2024-03-22T02:41:46;7.80;99.90
33988;DHT22;37428;53.580;-1.666;2024-03-22T02:44:47;7.70;99.90
33988;DHT22;37428;53.580;-1.666;2024-03-22T02:47:48;7.70;99.90
33988;DHT22;37428;53.580;-1.666;2024-03-22T02:50:49;7.70;99.90
33988;DHT22;37428;53.580;-1.666;2024-03-22T02:53:58;7.80;99.90
33988;DHT22;37428;53.580;-1.666;2024-03-22T02:56:59;7.80;99.90
33988;DHT22;37428;53.580;-1.666;2024-03-22T03:00:02;7.80;99.90
33988;DHT22;37428;53.580;-1.666;2024-03-22T03:03:05;7.80;99.90
33988;DHT22;37428;53.580;-1.666;2024-03-22T03:06:06;7.80;99.90
33988;DHT22;37428;53.580;-1.666;2024-03-22T03:09:10;7.80;99.90
33988;DHT22;37428;53.580;-1.666;2024-03-22T03:12:11;7.80;99.90
33988;DHT22;37428;53.580;-1.666;2024-03-22T03:15:13;7.70;99.90
33988;DHT22;37428;53.580;-1.666;2024-03-22T03:18:14;7.80;99.90
33988;DHT22;37428;53.580;-1.666;2024-03-22T03:21:15;7.80;99.90
33988;DHT22;37428;53.580;-1.666;2024-03-22T03:24:18;7.80;99.90
33988;DHT22;37428;53.580;-1.666;2024-03-22T03:27:19;7.80;99.90
33988;DHT22;37428;53.580;-1.666;2024-03-22T03:30:20;7.80;99.90
33988;DHT22;37428;53.580;-1.666;2024-03-22T03:33:22;7.80;99.90
33988;DHT22;37428;53.580;-1.666;2024-03-22T03:36:23;7.90;99.90
33988;DHT22;37428;53.580;-1.666;2024-03-22T03:39:26;7.90;99.90
33988;DHT22;37428;53.580;-1.666;2024-03-22T03:42:27;7.80;99.90
33988;DHT22;37428;53.580;-1.666;2024-03-22T03:45:29;7.90;99.90
33988;DHT22;37428;53.580;-1.666;2024-03-22T03:48:29;7.90;99.90
33988;DHT22;37428;53.580;-1.666;2024-03-22T03:51:31;7.90;99.90
33988;DHT22;37428;53.580;-1.666;2024-03-22T03:54:34;7.90;99.90
33988;DHT22;37428;53.580;-1.666;2024-03-22T03:57:35;7.90;99.90
33988;DHT22;37428;53.580;-1.666;2024-03-22T04:00:37;7.80;99.90
33988;DHT22;37428;53.580;-1.666;2024-03-22T04:03:38;7.80;99.90
33988;DHT22;37428;53.580;-1.666;2024-03-22T04:06:40;7.90;99.90
33988;DHT22;37428;53.580;-1.666;2024-03-22T04:09:42;7.90;99.90
33988;DHT22;37428;53.580;-1.666;2024-03-22T04:12:44;7.80;99.90
33988;DHT22;37428;53.580;-1.666;2024-03-22T04:15:46;7.90;99.90
33988;DHT22;37428;53.580;-1.666;2024-03-22T04:18:47;7.80;99.90
33988;DHT22;37428;53.580;-1.666;2024-03-22T04:21:49;7.80;99.90
33988;DHT22;37428;53.580;-1.666;2024-03-22T04:24:53;7.80;99.90
33988;DHT22;37428;53.580;-1.666;2024-03-22T04:27:53;7.80;99.90
33988;DHT22;37428;53.580;-1.666;2024-03-22T04:30:59;7.70;99.90
33988;DHT22;37428;53.580;-1.666;2024-03-22T04:34:00;7.60;99.90
33988;DHT22;37428;53.580;-1.666;2024-03-22T04:37:02;7.60;99.90
33988;DHT22;37428;53.580;-1.666;2024-03-22T04:40:06;7.50;99.90
33988;DHT22;37428;53.580;-1.666;2024-03-22T04:43:10;7.50;99.90
33988;DHT22;37428;53.580;-1.666;2024-03-22T04:46:12;7.40;99.90
33988;DHT22;37428;53.580;-1.666;2024-03-22T04:49:14;7.40;99.90
33988;DHT22;37428;53.580;-1.666;2024-03-22T04:52:15;7.30;99.90
33988;DHT22;37428;53.580;-1.666;2024-03-22T04:55:18;7.30;99.90
33988;DHT22;37428;53.580;-1.666;2024-03-22T04:58:21;7.30;99.90
33988;DHT22;37428;53.580;-1.666;2024-03-22T05:01:21;7.20;99.90
33988;DHT22;37428;53.580;-1.666;2024-03-22T05:04:24;7.20;99.90
33988;DHT22;37428;53.580;-1.666;2024-03-22T05:07:25;7.20;99.90
33988;DHT22;37428;53.580;-1.666;2024-03-22T05:10:29;7.20;99.90
33988;DHT22;37428;53.580;-1.666;2024-03-22T05:13:30;7.10;99.90
33988;DHT22;37428;53.580;-1.666;2024-03-22T05:16:31;7.10;99.90
33988;DHT22;37428;53.580;-1.666;2024-03-22T05:19:32;7.10;99.90
33988;DHT22;37428;53.580;-1.666;2024-03-22T05:22:34;7.10;99.90
33988;DHT22;37428;53.580;-1.666;2024-03-22T05:25:36;7.00;99.90
33988;DHT22;37428;53.580;-1.666;2024-03-22T05:28:38;7.00;99.90
33988;DHT22;37428;53.580;-1.666;2024-03-22T05:31:45;7.00;99.90
33988;DHT22;37428;53.580;-1.666;2024-03-22T05:34:46;7.00;99.90
33988;DHT22;37428;53.580;-1.666;2024-03-22T05:37:48;7.00;99.90
33988;DHT22;37428;53.580;-1.666;2024-03-22T05:40:52;7.00;99.90
33988;DHT22;37428;53.580;-1.666;2024-03-22T05:43:54;7.00;99.90
33988;DHT22;37428;53.580;-1.666;2024-03-22T05:46:55;6.90;99.90
33988;DHT22;37428;53.580;-1.666;2024-03-22T05:49:56;6.90;99.90
33988;DHT22;37428;53.580;-1.666;2024-03-22T05:52:58;7.00;99.90
33988;DHT22;37428;53.580;-1.666;2024-03-22T05:56:00;7.00;99.90
33988;DHT22;37428;53.580;-1.666;2024-03-22T05:59:02;7.00;99.90
33988;DHT22;37428;53.580;-1.666;2024-03-22T06:02:04;6.90;99.90
33988;DHT22;37428;53.580;-1.666;2024-03-22T06:05:06;7.00;99.90
33988;DHT22;37428;53.580;-1.666;2024-03-22T06:08:07;7.00;99.90
33988;DHT22;37428;53.580;-1.666;2024-03-22T06:11:10;7.00;99.90
33988;DHT22;37428;53.580;-1.666;2024-03-22T06:14:11;7.00;99.90
33988;DHT22;37428;53.580;-1.666;2024-03-22T06:17:13;7.00;99.90
33988;DHT22;37428;53.580;-1.666;2024-03-22T06:20:14;7.00;99.90
33988;DHT22;37428;53.580;-1.666;2024-03-22T06:23:16;7.00;99.90
33988;DHT22;37428;53.580;-1.666;2024-03-22T06:26:19;6.90;99.90
33988;DHT22;37428;53.580;-1.666;2024-03-22T06:29:20;6.90;99.90
33988;DHT22;37428;53.580;-1.666;2024-03-22T06:32:22;6.90;99.90
33988;DHT22;37428;53.580;-1.666;2024-03-22T06:35:23;6.90;99.90
33988;DHT22;37428;53.580;-1.666;2024-03-22T06:38:24;6.90;99.90
33988;DHT22;37428;53.580;-1.666;2024-03-22T06:41:27;6.90;99.90
33988;DHT22;37428;53.580;-1.666;2024-03-22T06:44:29;6.90;99.90
33988;DHT22;37428;53.580;-1.666;2024-03-22T06:47:32;6.90;99.90
33988;DHT22;37428;53.580;-1.666;2024-03-22T06:50:33;6.90;99.90
33988;DHT22;37428;53.580;-1.666;2024-03-22T06:53:35;6.80;99.90
33988;DHT22;37428;53.580;-1.666;2024-03-22T06:56:38;6.80;99.90
33988;DHT22;37428;53.580;-1.666;2024-03-22T06:59:39;6.80;99.90
33988;DHT22;37428;53.580;-1.666;2024-03-22T07:02:40;6.80;99.90
33988;DHT22;37428;53.580;-1.666;2024-03-22T07:05:42;6.90;99.90
33988;DHT22;37428;53.580;-1.666;2024-03-22T07:08:43;6.80;99.90
33988;DHT22;37428;53.580;-1.666;2024-03-22T07:11:47;6.80;99.90
33988;DHT22;37428;53.580;-1.666;2024-03-22T07:14:48;6.90;99.90
33988;DHT22;37428;53.580;-1.666;2024-03-22T07:17:49;6.90;99.90
33988;DHT22;37428;53.580;-1.666;2024-03-22T07:20:51;7.00;99.90
33988;DHT22;37428;53.580;-1.666;2024-03-22T07:23:52;7.00;99.90
33988;DHT22;37428;53.580;-1.666;2024-03-22T07:26:55;7.00;99.90
33988;DHT22;37428;53.580;-1.666;2024-03-22T07:29:57;7.00;99.00
33988;DHT22;37428;53.580;-1.666;2024-03-22T07:32:58;7.00;99.30
33988;DHT22;37428;53.580;-1.666;2024-03-22T07:36:01;7.00;99.50
33988;DHT22;37428;53.580;-1.666;2024-03-22T07:39:03;7.10;99.90
33988;DHT22;37428;53.580;-1.666;2024-03-22T07:42:07;7.20;99.70
33988;DHT22;37428;53.580;-1.666;2024-03-22T07:45:09;7.30;99.50
33988;DHT22;37428;53.580;-1.666;2024-03-22T07:48:10;7.40;99.30
33988;DHT22;37428;53.580;-1.666;2024-03-22T07:51:12;7.40;97.90
33988;DHT22;37428;53.580;-1.666;2024-03-22T07:54:13;7.40;97.30
33988;DHT22;37428;53.580;-1.666;2024-03-22T07:57:16;7.50;97.30
33988;DHT22;37428;53.580;-1.666;2024-03-22T08:00:17;7.40;97.00
33988;DHT22;37428;53.580;-1.666;2024-03-22T08:03:19;7.30;96.20
33988;DHT22;37428;53.580;-1.666;2024-03-22T08:06:20;7.30;96.60
33988;DHT22;37428;53.580;-1.666;2024-03-22T08:09:22;7.30;97.60
33988;DHT22;37428;53.580;-1.666;2024-03-22T08:12:24;7.30;97.90
33988;DHT22;37428;53.580;-1.666;2024-03-22T08:15:26;7.20;97.30
33988;DHT22;37428;53.580;-1.666;2024-03-22T08:18:27;7.30;97.00
33988;DHT22;37428;53.580;-1.666;2024-03-22T08:21:29;7.30;96.50
33988;DHT22;37428;53.580;-1.666;2024-03-22T08:24:31;7.20;96.20
33988;DHT22;37428;53.580;-1.666;2024-03-22T08:27:33;7.30;95.90
33988;DHT22;37428;53.580;-1.666;2024-03-22T08:30:37;7.30;94.30
33988;DHT22;37428;53.580;-1.666;2024-03-22T08:33:38;7.30;94.40
33988;DHT22;37428;53.580;-1.666;2024-03-22T08:36:39;7.40;95.00
33988;DHT22;37428;53.580;-1.666;2024-03-22T08:39:40;7.40;95.70
33988;DHT22;37428;53.580;-1.666;2024-03-22T08:42:43;7.40;95.10
33988;DHT22;37428;53.580;-1.666;2024-03-22T08:45:44;7.40;95.10
33988;DHT22;37428;53.580;-1.666;2024-03-22T08:48:46;7.40;95.70
33988;DHT22;37428;53.580;-1.666;2024-03-22T08:51:47;7.30;94.50
33988;DHT22;37428;53.580;-1.666;2024-03-22T08:54:49;7.50;94.30
33988;DHT22;37428;53.580;-1.666;2024-03-22T08:57:51;7.60;94.50
33988;DHT22;37428;53.580;-1.666;2024-03-22T09:00:53;7.50;94.40
33988;DHT22;37428;53.580;-1.666;2024-03-22T09:03:55;7.60;94.50
33988;DHT22;37428;53.580;-1.666;2024-03-22T09:06:55;7.70;92.20
33988;DHT22;37428;53.580;-1.666;2024-03-22T09:09:58;7.60;91.30
33988;DHT22;37428;53.580;-1.666;2024-03-22T09:13:02;7.60;92.70
33988;DHT22;37428;53.580;-1.666;2024-03-22T09:16:04;7.70;91.90
33988;DHT22;37428;53.580;-1.666;2024-03-22T09:19:05;7.90;90.40
33988;DHT22;37428;53.580;-1.666;2024-03-22T09:22:06;7.90;90.00
33988;DHT22;37428;53.580;-1.666;2024-03-22T09:25:07;8.10;89.80
33988;DHT22;37428;53.580;-1.666;2024-03-22T09:28:11;8.30;89.30
33988;DHT22;37428;53.580;-1.666;2024-03-22T09:31:11;8.60;87.80
33988;DHT22;37428;53.580;-1.666;2024-03-22T09:34:13;9.00;86.40
33988;DHT22;37428;53.580;-1.666;2024-03-22T09:37:16;9.50;84.80
33988;DHT22;37428;53.580;-1.666;2024-03-22T09:40:18;10.00;83.10
33988;DHT22;37428;53.580;-1.666;2024-03-22T09:43:20;10.30;82.10
33988;DHT22;37428;53.580;-1.666;2024-03-22T09:46:22;10.20;76.70
33988;DHT22;37428;53.580;-1.666;2024-03-22T09:49:23;10.20;74.30
33988;DHT22;37428;53.580;-1.666;2024-03-22T09:52:26;10.20;75.40
33988;DHT22;37428;53.580;-1.666;2024-03-22T09:55:28;10.50;77.60
33988;DHT22;37428;53.580;-1.666;2024-03-22T09:58:30;10.40;74.30
33988;DHT22;37428;53.580;-1.666;2024-03-22T10:01:32;10.00;73.60
33988;DHT22;37428;53.580;-1.666;2024-03-22T10:04:35;9.80;73.90
33988;DHT22;37428;53.580;-1.666;2024-03-22T10:07:36;9.80;73.20
33988;DHT22;37428;53.580;-1.666;2024-03-22T10:10:38;10.10;74.90
33988;DHT22;37428;53.580;-1.666;2024-03-22T10:13:41;10.50;73.90
33988;DHT22;37428;53.580;-1.666;2024-03-22T10:16:42;10.70;72.10
33988;DHT22;37428;53.580;-1.666;2024-03-22T10:19:44;10.90;71.80
33988;DHT22;37428;53.580;-1.666;2024-03-22T10:22:47;10.80;70.40
33988;DHT22;37428;53.580;-1.666;2024-03-22T10:25:49;10.80;68.30
33988;DHT22;37428;53.580;-1.666;2024-03-22T10:28:52;10.90;68.60
33988;DHT22;37428;53.580;-1.666;2024-03-22T10:31:54;10.50;69.70
33988;DHT22;37428;53.580;-1.666;2024-03-22T10:34:56;10.10;67.50
33988;DHT22;37428;53.580;-1.666;2024-03-22T10:37:58;10.40;70.20
33988;DHT22;37428;53.580;-1.666;2024-03-22T10:41:00;10.70;67.30
33988;DHT22;37428;53.580;-1.666;2024-03-22T10:44:03;10.70;67.30
33988;DHT22;37428;53.580;-1.666;2024-03-22T10:47:05;10.60;67.40
33988;DHT22;37428;53.580;-1.666;2024-03-22T10:50:06;10.60;67.90
33988;DHT22;37428;53.580;-1.666;2024-03-22T10:53:11;10.40;68.30
33988;DHT22;37428;53.580;-1.666;2024-03-22T10:56:15;9.90;67.10
33988;DHT22;37428;53.580;-1.666;2024-03-22T10:59:19;9.80;69.70
33988;DHT22;37428;53.580;-1.666;2024-03-22T11:02:23;9.70;72.00
33988;DHT22;37428;53.580;-1.666;2024-03-22T11:05:25;9.50;70.80
33988;DHT22;37428;53.580;-1.666;2024-03-22T11:08:28;9.20;73.60
33988;DHT22;37428;53.580;-1.666;2024-03-22T11:11:29;9.00;71.70
33988;DHT22;37428;53.580;-1.666;2024-03-22T11:14:33;9.10;70.70
33988;DHT22;37428;53.580;-1.666;2024-03-22T11:17:34;9.20;72.10
33988;DHT22;37428;53.580;-1.666;2024-03-22T11:20:36;9.40;73.40
33988;DHT22;37428;53.580;-1.666;2024-03-22T11:23:38;9.80;69.80
33988;DHT22;37428;53.580;-1.666;2024-03-22T11:26:39;10.30;70.90
33988;DHT22;37428;53.580;-1.666;2024-03-22T11:29:42;10.60;69.70
33988;DHT22;37428;53.580;-1.666;2024-03-22T11:32:44;10.80;65.30
33988;DHT22;37428;53.580;-1.666;2024-03-22T11:35:45;10.90;67.00
33988;DHT22;37428;53.580;-1.666;2024-03-22T11:38:48;11.30;64.70
33988;DHT22;37428;53.580;-1.666;2024-03-22T11:41:50;11.40;63.70
33988;DHT22;37428;53.580;-1.666;2024-03-22T11:44:53;11.50;63.60
33988;DHT22;37428;53.580;-1.666;2024-03-22T11:47:54;11.40;60.00
33988;DHT22;37428;53.580;-1.666;2024-03-22T11:50:56;11.50;56.20
33988;DHT22;37428;53.580;-1.666;2024-03-22T11:53:59;11.80;58.20
33988;DHT22;37428;53.580;-1.666;2024-03-22T11:57:04;11.60;50.90
33988;DHT22;37428;53.580;-1.666;2024-03-22T12:00:07;11.70;49.00
33988;DHT22;37428;53.580;-1.666;2024-03-22T12:03:10;11.50;50.90
33988;DHT22;37428;53.580;-1.666;2024-03-22T12:06:10;11.60;50.70
33988;DHT22;37428;53.580;-1.666;2024-03-22T12:09:12;11.90;52.90
33988;DHT22;37428;53.580;-1.666;2024-03-22T12:12:14;11.90;50.90
33988;DHT22;37428;53.580;-1.666;2024-03-22T12:15:17;11.90;51.40
33988;DHT22;37428;53.580;-1.666;2024-03-22T12:18:18;11.90;53.50
33988;DHT22;37428;53.580;-1.666;2024-03-22T12:21:20;12.10;53.70
33988;DHT22;37428;53.580;-1.666;2024-03-22T12:24:21;12.30;54.00
33988;DHT22;37428;53.580;-1.666;2024-03-22T12:27:23;12.10;54.60
33988;DHT22;37428;53.580;-1.666;2024-03-22T12:30:25;12.00;54.00
33988;DHT22;37428;53.580;-1.666;2024-03-22T12:33:27;12.20;53.70
33988;DHT22;37428;53.580;-1.666;2024-03-22T12:36:28;12.70;53.60
33988;DHT22;37428;53.580;-1.666;2024-03-22T12:39:30;12.60;50.90
33988;DHT22;37428;53.580;-1.666;2024-03-22T12:42:32;12.40;50.90
33988;DHT22;37428;53.580;-1.666;2024-03-22T12:45:36;12.60;52.80
33988;DHT22;37428;53.580;-1.666;2024-03-22T12:48:36;12.40;52.40
33988;DHT22;37428;53.580;-1.666;2024-03-22T12:51:38;12.40;50.90
33988;DHT22;37428;53.580;-1.666;2024-03-22T12:54:39;12.40;52.00
33988;DHT22;37428;53.580;-1.666;2024-03-22T12:57:41;12.30;52.30
33988;DHT22;37428;53.580;-1.666;2024-03-22T13:00:45;11.60;55.00
33988;DHT22;37428;53.580;-1.666;2024-03-22T13:03:47;11.40;56.10
33988;DHT22;37428;53.580;-1.666;2024-03-22T13:06:48;11.70;56.00
33988;DHT22;37428;53.580;-1.666;2024-03-22T13:09:50;12.00;56.40
33988;DHT22;37428;53.580;-1.666;2024-03-22T13:12:51;12.10;54.00
33988;DHT22;37428;53.580;-1.666;2024-03-22T13:15:56;12.20;53.50
33988;DHT22;37428;53.580;-1.666;2024-03-22T13:18:56;12.30;52.90
33988;DHT22;37428;53.580;-1.666;2024-03-22T13:21:58;12.00;52.30
33988;DHT22;37428;53.580;-1.666;2024-03-22T13:24:59;11.90;53.30
33988;DHT22;37428;53.580;-1.666;2024-03-22T13:28:01;11.60;54.00
33988;DHT22;37428;53.580;-1.666;2024-03-22T13:31:04;11.90;54.50
33988;DHT22;37428;53.580;-1.666;2024-03-22T13:34:07;11.90;52.10
33988;DHT22;37428;53.580;-1.666;2024-03-22T13:37:09;12.00;51.40
33988;DHT22;37428;53.580;-1.666;2024-03-22T13:40:11;12.10;52.60
33988;DHT22;37428;53.580;-1.666;2024-03-22T13:43:12;12.10;50.50
33988;DHT22;37428;53.580;-1.666;2024-03-22T13:46:15;12.10;51.40
33988;DHT22;37428;53.580;-1.666;2024-03-22T13:49:18;12.10;52.40
33988;DHT22;37428;53.580;-1.666;2024-03-22T13:52:21;11.70;53.70
33988;DHT22;37428;53.580;-1.666;2024-03-22T13:55:21;12.00;54.10
33988;DHT22;37428;53.580;-1.666;2024-03-22T13:58:23;12.20;53.40
33988;DHT22;37428;53.580;-1.666;2024-03-22T14:01:27;12.20;52.60
33988;DHT22;37428;53.580;-1.666;2024-03-22T14:04:27;12.40;53.00
33988;DHT22;37428;53.580;-1.666;2024-03-22T14:07:29;12.50;51.80
33988;DHT22;37428;53.580;-1.666;2024-03-22T14:10:31;12.70;50.30
33988;DHT22;37428;53.580;-1.666;2024-03-22T14:13:32;12.90;51.40
33988;DHT22;37428;53.580;-1.666;2024-03-22T14:16:36;12.70;49.40
33988;DHT22;37428;53.580;-1.666;2024-03-22T14:19:36;12.80;49.80
33988;DHT22;37428;53.580;-1.666;2024-03-22T14:22:38;12.80;51.80
33988;DHT22;37428;53.580;-1.666;2024-03-22T14:25:40;13.10;50.50
33988;DHT22;37428;53.580;-1.666;2024-03-22T14:28:45;13.30;50.10
33988;DHT22;37428;53.580;-1.666;2024-03-22T14:31:49;13.30;49.00
33988;DHT22;37428;53.580;-1.666;2024-03-22T14:34:51;13.20;49.00
33988;DHT22;37428;53.580;-1.666;2024-03-22T14:37:52;13.00;50.50
33988;DHT22;37428;53.580;-1.666;2024-03-22T14:40:54;13.20;49.90
33988;DHT22;37428;53.580;-1.666;2024-03-22T14:43:55;13.40;50.80
33988;DHT22;37428;53.580;-1.666;2024-03-22T14:46:58;13.50;51.90
33988;DHT22;37428;53.580;-1.666;2024-03-22T14:49:59;13.00;50.30
33988;DHT22;37428;53.580;-1.666;2024-03-22T14:53:01;12.40;53.10
33988;DHT22;37428;53.580;-1.666;2024-03-22T14:56:02;11.70;53.20
33988;DHT22;37428;53.580;-1.666;2024-03-22T14:59:05;11.20;55.90
33988;DHT22;37428;53.580;-1.666;2024-03-22T15:02:07;10.80;56.90
33988;DHT22;37428;53.580;-1.666;2024-03-22T15:05:09;10.70;59.50
33988;DHT22;37428;53.580;-1.666;2024-03-22T15:08:09;11.10;57.90
33988;DHT22;37428;53.580;-1.666;2024-03-22T15:11:11;11.60;57.10
33988;DHT22;37428;53.580;-1.666;2024-03-22T15:14:13;11.90;57.00
33988;DHT22;37428;53.580;-1.666;2024-03-22T15:17:15;12.00;55.60
33988;DHT22;37428;53.580;-1.666;2024-03-22T15:20:22;11.90;56.10
33988;DHT22;37428;53.580;-1.666;2024-03-22T15:23:23;11.30;55.20
33988;DHT22;37428;53.580;-1.666;2024-03-22T15:26:25;10.90;57.20
33988;DHT22;37428;53.580;-1.666;2024-03-22T15:29:26;10.70;56.90
33988;DHT22;37428;53.580;-1.666;2024-03-22T15:32:29;10.60;58.30
33988;DHT22;37428;53.580;-1.666;2024-03-22T15:35:30;10.50;58.80
33988;DHT22;37428;53.580;-1.666;2024-03-22T15:38:32;10.60;58.80
33988;DHT22;37428;53.580;-1.666;2024-03-22T15:41:33;10.60;58.90
33988;DHT22;37428;53.580;-1.666;2024-03-22T15:44:36;10.20;58.90
33988;DHT22;37428;53.580;-1.666;2024-03-22T15:47:38;9.90;60.80
33988;DHT22;37428;53.580;-1.666;2024-03-22T15:50:40;10.00;61.60
33988;DHT22;37428;53.580;-1.666;2024-03-22T15:53:41;9.90;62.90
33988;DHT22;37428;53.580;-1.666;2024-03-22T15:56:42;9.90;63.30
33988;DHT22;37428;53.580;-1.666;2024-03-22T15:59:44;9.80;62.80
33988;DHT22;37428;53.580;-1.666;2024-03-22T16:02:47;9.80;64.00
33988;DHT22;37428;53.580;-1.666;2024-03-22T16:05:49;9.90;63.70
33988;DHT22;37428;53.580;-1.666;2024-03-22T16:08:51;9.90;61.90
33988;DHT22;37428;53.580;-1.666;2024-03-22T16:11:52;10.00;62.90
33988;DHT22;37428;53.580;-1.666;2024-03-22T16:14:54;10.10;63.10
33988;DHT22;37428;53.580;-1.666;2024-03-22T16:17:56;10.10;61.50
33988;DHT22;37428;53.580;-1.666;2024-03-22T16:20:58;10.00;61.00
33988;DHT22;37428;53.580;-1.666;2024-03-22T16:23:58;10.00;62.80
33988;DHT22;37428;53.580;-1.666;2024-03-22T16:27:00;10.00;62.00
33988;DHT22;37428;53.580;-1.666;2024-03-22T16:30:02;10.10;60.80
33988;DHT22;37428;53.580;-1.666;2024-03-22T16:33:06;10.10;60.60
33988;DHT22;37428;53.580;-1.666;2024-03-22T16:36:08;10.20;60.30
33988;DHT22;37428;53.580;-1.666;2024-03-22T16:39:08;10.20;60.00
33988;DHT22;37428;53.580;-1.666;2024-03-22T16:42:10;10.10;60.30
33988;DHT22;37428;53.580;-1.666;2024-03-22T16:45:11;10.00;60.50
33988;DHT22;37428;53.580;-1.666;2024-03-22T16:48:14;9.80;61.90
33988;DHT22;37428;53.580;-1.666;2024-03-22T16:51:16;9.60;62.80
33988;DHT22;37428;53.580;-1.666;2024-03-22T16:54:17;9.50;63.80
33988;DHT22;37428;53.580;-1.666;2024-03-22T16:57:20;9.50;64.20
33988;DHT22;37428;53.580;-1.666;2024-03-22T17:00:21;9.50;64.20
33988;DHT22;37428;53.580;-1.666;2024-03-22T17:03:25;9.40;66.30
33988;DHT22;37428;53.580;-1.666;2024-03-22T17:06:26;9.50;65.60
33988;DHT22;37428;53.580;-1.666;2024-03-22T17:09:28;9.60;66.20
33988;DHT22;37428;53.580;-1.666;2024-03-22T17:12:30;9.60;66.30
33988;DHT22;37428;53.580;-1.666;2024-03-22T17:15:31;9.50;65.60
33988;DHT22;37428;53.580;-1.666;2024-03-22T17:18:34;9.30;65.70
33988;DHT22;37428;53.580;-1.666;2024-03-22T17:21:35;9.30;66.30
33988;DHT22;37428;53.580;-1.666;2024-03-22T17:24:36;9.10;66.80
33988;DHT22;37428;53.580;-1.666;2024-03-22T17:27:37;9.00;68.00
33988;DHT22;37428;53.580;-1.666;2024-03-22T17:30:39;8.90;67.50
33988;DHT22;37428;53.580;-1.666;2024-03-22T17:33:42;8.80;68.40
33988;DHT22;37428;53.580;-1.666;2024-03-22T17:36:44;8.70;67.50
33988;DHT22;37428;53.580;-1.666;2024-03-22T17:39:46;8.70;68.10
33988;DHT22;37428;53.580;-1.666;2024-03-22T17:42:48;8.60;68.20
33988;DHT22;37428;53.580;-1.666;2024-03-22T17:45:55;8.40;68.50
33988;DHT22;37428;53.580;-1.666;2024-03-22T17:48:59;8.40;68.80
33988;DHT22;37428;53.580;-1.666;2024-03-22T17:51:59;8.40;68.50
33988;DHT22;37428;53.580;-1.666;2024-03-22T17:55:01;8.30;69.30
33988;DHT22;37428;53.580;-1.666;2024-03-22T17:58:03;8.20;70.30
33988;DHT22;37428;53.580;-1.666;2024-03-22T18:01:04;8.20;72.10
33988;DHT22;37428;53.580;-1.666;2024-03-22T18:04:07;8.10;71.70
33988;DHT22;37428;53.580;-1.666;2024-03-22T18:07:09;8.00;72.80
33988;DHT22;37428;53.580;-1.666;2024-03-22T18:10:10;8.00;73.50
33988;DHT22;37428;53.580;-1.666;2024-03-22T18:13:13;8.00;73.60
33988;DHT22;37428;53.580;-1.666;2024-03-22T18:16:15;7.90;74.00
33988;DHT22;37428;53.580;-1.666;2024-03-22T18:19:18;7.90;74.50
33988;DHT22;37428;53.580;-1.666;2024-03-22T18:22:20;7.90;75.90
33988;DHT22;37428;53.580;-1.666;2024-03-22T18:25:21;7.80;75.40
33988;DHT22;37428;53.580;-1.666;2024-03-22T18:28:22;7.70;74.70
33988;DHT22;37428;53.580;-1.666;2024-03-22T18:31:23;7.70;74.30
33988;DHT22;37428;53.580;-1.666;2024-03-22T18:34:27;7.60;74.30
33988;DHT22;37428;53.580;-1.666;2024-03-22T18:37:28;7.50;74.70
33988;DHT22;37428;53.580;-1.666;2024-03-22T18:40:29;7.50;74.90
33988;DHT22;37428;53.580;-1.666;2024-03-22T18:43:30;7.40;75.70
33988;DHT22;37428;53.580;-1.666;2024-03-22T18:46:33;7.40;76.60
33988;DHT22;37428;53.580;-1.666;2024-03-22T18:49:36;7.40;77.90
33988;DHT22;37428;53.580;-1.666;2024-03-22T18:52:38;7.40;78.10
33988;DHT22;37428;53.580;-1.666;2024-03-22T18:55:40;7.30;78.50
33988;DHT22;37428;53.580;-1.666;2024-03-22T18:58:41;7.40;79.30
33988;DHT22;37428;53.580;-1.666;2024-03-22T19:01:44;7.50;80.50